createdAt,value
2022-11-27T00:01:27.343Z,98942.97
2022-11-27T00:03:55.329Z,98941.22
2022-11-27T00:06:25.845Z,98935.94
2022-11-27T00:08:53.109Z,98948.00
2022-11-27T00:11:24.562Z,98953.13
2022-11-27T00:13:52.411Z,98960.75
2022-11-27T00:16:20.770Z,98966.78
2022-11-27T00:18:48.454Z,98967.50
2022-11-27T00:21:24.311Z,98972.59
2022-11-27T00:23:53.022Z,98965.91
2022-11-27T00:26:20.186Z,98966.72
2022-11-27T00:28:47.416Z,98965.25
2022-11-27T00:31:28.697Z,98973.03
2022-11-27T00:33:56.833Z,98973.88
2022-11-27T00:36:23.860Z,98973.94
2022-11-27T00:38:51.196Z,98983.34
2022-11-27T00:41:20.763Z,98978.88
2022-11-27T00:43:47.935Z,98983.88
2022-11-27T00:46:16.653Z,98980.38
2022-11-27T00:48:44.522Z,98977.88
2022-11-27T00:51:14.720Z,98980.38
2022-11-27T00:53:42.265Z,98977.94
2022-11-27T00:56:10.481Z,98979.69
2022-11-27T00:58:37.380Z,98984.88
2022-11-27T01:01:07.623Z,98984.06
2022-11-27T01:03:35.388Z,98988.38
2022-11-27T01:06:06.662Z,98992.66
2022-11-27T01:08:34.720Z,98984.81
2022-11-27T01:11:02.401Z,98983.81
2022-11-27T01:13:32.509Z,98985.56
2022-11-27T01:16:11.843Z,98980.34
2022-11-27T01:18:41.241Z,98975.16
2022-11-27T01:21:09.120Z,98979.63
2022-11-27T01:23:36.203Z,98981.28
2022-11-27T01:26:05.687Z,98974.69
2022-11-27T01:28:33.652Z,98971.25
2022-11-27T01:31:05.726Z,98970.63
2022-11-27T01:33:33.265Z,98968.88
2022-11-27T01:36:02.546Z,98977.59
2022-11-27T01:38:31.074Z,98981.84
2022-11-27T01:41:04.313Z,98982.63
2022-11-27T01:43:47.961Z,98980.09
2022-11-27T01:46:29.654Z,98971.44
2022-11-27T01:49:11.513Z,98971.44
2022-11-27T01:51:44.654Z,98972.41
2022-11-27T01:54:12.128Z,98974.06
2022-11-27T01:56:41.946Z,98974.06
2022-11-27T01:59:08.888Z,98977.44
2022-11-27T02:01:35.795Z,98972.25
2022-11-27T02:04:03.300Z,98975.69
2022-11-27T02:06:30.244Z,98970.44
2022-11-27T02:08:57.483Z,98967.00
2022-11-27T02:11:29.906Z,98971.25
2022-11-27T02:14:11.238Z,98974.78
2022-11-27T02:16:53.124Z,98978.91
2022-11-27T02:19:28.122Z,98989.34
2022-11-27T02:22:05.396Z,98993.41
2022-11-27T02:24:50.761Z,98989.00
2022-11-27T02:27:42.394Z,98986.34
2022-11-27T02:30:10.381Z,98985.41
2022-11-27T02:32:43.825Z,98994.19
2022-11-27T02:35:37.512Z,98999.31
2022-11-27T02:38:13.489Z,98999.50
2022-11-27T02:40:45.648Z,98992.78
2022-11-27T02:43:18.376Z,98993.78
2022-11-27T02:45:48.959Z,98990.44
2022-11-27T02:48:19.772Z,98993.91
2022-11-27T02:50:48.699Z,98992.31
2022-11-27T02:53:21.259Z,98996.72
2022-11-27T02:55:50.641Z,98996.78
2022-11-27T02:58:21.920Z,99001.41
2022-11-27T03:00:50.683Z,98996.31
2022-11-27T03:03:23.527Z,98999.19
2022-11-27T03:05:54.206Z,98995.13
2022-11-27T03:08:32.405Z,98991.81
2022-11-27T03:11:25.756Z,99002.25
2022-11-27T03:13:58.618Z,98989.75
2022-11-27T03:17:05.170Z,98994.38
2022-11-27T03:19:44.203Z,98997.19
2022-11-27T03:22:11.863Z,98983.66
2022-11-27T03:24:39.410Z,98988.13
2022-11-27T03:27:06.974Z,98984.84
2022-11-27T03:29:38.669Z,98979.00
2022-11-27T03:32:06.142Z,98972.59
2022-11-27T03:34:34.165Z,98968.56
2022-11-27T03:37:01.533Z,98965.16
2022-11-27T03:39:29.482Z,98971.16
2022-11-27T03:42:17.865Z,98967.53
2022-11-27T03:45:12.267Z,98963.00
2022-11-27T03:47:57.983Z,98961.97
2022-11-27T03:50:30.831Z,98962.66
2022-11-27T03:53:07.980Z,98957.44
2022-11-27T03:56:09.605Z,98961.00
2022-11-27T03:58:43.675Z,98949.22
2022-11-27T04:01:14.568Z,98954.47
2022-11-27T04:03:41.681Z,98959.91
2022-11-27T04:06:08.714Z,98948.84
2022-11-27T04:08:35.585Z,98954.28
2022-11-27T04:11:02.569Z,98966.50
2022-11-27T04:13:29.396Z,98970.84
2022-11-27T04:15:56.322Z,98975.97
2022-11-27T04:18:23.237Z,98982.97
2022-11-27T04:20:50.184Z,98976.75
2022-11-27T04:23:17.065Z,98972.50
2022-11-27T04:25:44.081Z,98970.75
2022-11-27T04:28:11.368Z,98975.09
2022-11-27T04:30:38.231Z,98966.47
2022-11-27T04:33:05.191Z,98975.09
2022-11-27T04:35:32.092Z,98976.94
2022-11-27T04:37:58.989Z,98978.78
2022-11-27T04:40:25.900Z,98973.72
2022-11-27T04:42:52.887Z,98976.09
2022-11-27T04:45:20.004Z,98981.41
2022-11-27T04:47:46.872Z,98975.47
2022-11-27T04:50:13.755Z,98984.06
2022-11-27T04:52:40.650Z,98989.44
2022-11-27T04:55:08.125Z,98985.34
2022-11-27T04:57:35.063Z,98984.44
2022-11-27T05:00:02.130Z,98989.69
2022-11-27T05:02:29.238Z,98981.84
2022-11-27T05:04:56.224Z,98986.25
2022-11-27T05:07:23.469Z,98978.50
2022-11-27T05:09:51.203Z,98981.16
2022-11-27T05:12:18.079Z,98987.28
2022-11-27T05:14:44.926Z,98988.19
2022-11-27T05:17:11.960Z,98988.28
2022-11-27T05:19:38.944Z,98987.53
2022-11-27T05:22:05.925Z,98987.69
2022-11-27T05:24:32.932Z,98987.78
2022-11-27T05:26:59.821Z,98978.25
2022-11-27T05:29:27.127Z,98981.66
2022-11-27T05:31:54.137Z,98980.63
2022-11-27T05:34:21.364Z,98992.78
2022-11-27T05:36:48.586Z,98990.13
2022-11-27T05:39:15.522Z,98996.28
2022-11-27T05:41:43.526Z,98998.03
2022-11-27T05:44:14.693Z,98994.66
2022-11-27T05:46:43.797Z,98999.00
2022-11-27T05:49:15.965Z,98998.22
2022-11-27T05:51:49.364Z,98997.25
2022-11-27T05:54:17.954Z,98999.06
2022-11-27T05:56:44.989Z,98993.56
2022-11-27T05:59:12.785Z,98987.44
2022-11-27T06:01:39.822Z,98987.00
2022-11-27T06:04:06.762Z,98980.81
2022-11-27T06:06:33.684Z,98990.94
2022-11-27T06:09:00.959Z,98990.75
2022-11-27T06:11:27.976Z,98993.13
2022-11-27T06:13:54.909Z,98995.66
2022-11-27T06:16:24.069Z,98992.94
2022-11-27T06:18:53.314Z,98997.78
2022-11-27T06:21:21.740Z,99004.63
2022-11-27T06:23:49.151Z,98997.72
2022-11-27T06:26:24.440Z,99009.47
2022-11-27T06:28:51.878Z,99011.84
2022-11-27T06:31:21.641Z,99005.41
2022-11-27T06:33:50.296Z,99005.22
2022-11-27T06:36:18.360Z,98997.19
2022-11-27T06:38:46.466Z,98997.94
2022-11-27T06:41:16.217Z,98995.09
2022-11-27T06:43:43.698Z,98998.47
2022-11-27T06:46:15.543Z,99001.53
2022-11-27T06:48:44.212Z,99004.94
2022-11-27T06:51:14.217Z,99009.41
2022-11-27T06:53:41.122Z,99016.78
2022-11-27T06:56:10.620Z,99018.81
2022-11-27T06:58:38.428Z,99026.31
2022-11-27T07:01:12.920Z,99020.50
2022-11-27T07:03:40.050Z,99021.25
2022-11-27T07:06:09.121Z,99014.94
2022-11-27T07:08:36.697Z,99013.19
2022-11-27T07:11:06.327Z,99008.72
2022-11-27T07:13:33.697Z,99006.97
2022-11-27T07:16:06.118Z,99011.84
2022-11-27T07:18:39.545Z,99015.72
2022-11-27T07:21:06.701Z,99012.75
2022-11-27T07:23:33.711Z,99021.03
2022-11-27T07:26:09.371Z,99018.91
2022-11-27T07:28:36.765Z,99024.50
2022-11-27T07:31:04.014Z,99016.34
2022-11-27T07:33:31.705Z,99020.69
2022-11-27T07:36:00.765Z,99011.09
2022-11-27T07:38:28.012Z,99013.25
2022-11-27T07:40:55.094Z,99021.44
2022-11-27T07:43:22.081Z,99022.13
2022-11-27T07:45:49.117Z,99013.88
2022-11-27T07:48:16.117Z,99017.91
2022-11-27T07:50:42.972Z,99021.13
2022-11-27T07:53:10.071Z,99022.50
2022-11-27T07:55:40.710Z,99031.63
2022-11-27T07:58:08.479Z,99032.59
2022-11-27T08:00:36.141Z,99032.13
2022-11-27T08:03:03.731Z,99040.69
2022-11-27T08:05:33.521Z,99038.88
2022-11-27T08:08:01.581Z,99038.88
2022-11-27T08:10:28.562Z,99031.59
2022-11-27T08:12:55.391Z,99034.94
2022-11-27T08:15:22.295Z,99029.19
2022-11-27T08:17:49.163Z,99030.72
2022-11-27T08:20:16.291Z,99021.53
2022-11-27T08:22:43.213Z,99016.00
2022-11-27T08:25:10.176Z,99029.34
2022-11-27T08:27:37.085Z,99026.78
2022-11-27T08:30:05.268Z,99029.06
2022-11-27T08:32:32.615Z,99018.00
2022-11-27T08:34:59.597Z,99031.06
2022-11-27T08:37:26.531Z,99028.41
2022-11-27T08:39:53.575Z,99035.69
2022-11-27T08:42:20.565Z,99022.88
2022-11-27T08:44:47.459Z,99036.31
2022-11-27T08:47:15.667Z,99032.88
2022-11-27T08:49:46.304Z,99032.34
2022-11-27T08:52:13.779Z,99019.91
2022-11-27T08:54:40.886Z,99017.16
2022-11-27T08:57:07.968Z,99018.81
2022-11-27T08:59:34.903Z,99020.72
2022-11-27T09:02:01.805Z,99018.50
2022-11-27T09:04:29.177Z,99017.69
2022-11-27T09:06:58.757Z,99014.66
2022-11-27T09:09:25.896Z,99005.09
2022-11-27T09:11:55.176Z,99004.25
2022-11-27T09:14:22.153Z,99006.22
2022-11-27T09:16:49.298Z,99007.13
2022-11-27T09:19:17.257Z,99008.06
2022-11-27T09:21:44.281Z,99013.22
2022-11-27T09:24:11.152Z,99006.34
2022-11-27T09:26:39.284Z,98999.56
2022-11-27T09:29:06.500Z,99002.47
2022-11-27T09:31:33.474Z,99001.84
2022-11-27T09:34:00.366Z,99009.94
2022-11-27T09:36:27.449Z,99001.16
2022-11-27T09:38:54.716Z,98990.94
2022-11-27T09:41:42.373Z,98991.41
2022-11-27T09:44:24.070Z,98986.19
2022-11-27T10:17:21.632Z,98974.72
2022-11-27T10:19:53.310Z,98961.19
2022-11-27T10:22:32.510Z,98963.03
2022-11-27T10:25:25.588Z,98961.53
2022-11-27T10:28:10.394Z,98952.59
2022-11-27T10:30:43.318Z,98952.47
2022-11-27T10:33:18.041Z,98946.31
2022-11-27T10:35:48.227Z,98946.44
2022-11-27T10:38:22.471Z,98942.41
2022-11-27T10:41:09.788Z,98936.25
2022-11-27T10:43:39.112Z,98941.09
2022-11-27T10:46:28.039Z,98938.41
2022-11-27T10:48:54.989Z,98934.75
2022-11-27T10:51:30.130Z,98927.56
2022-11-27T10:53:59.483Z,98929.88
2022-11-27T10:56:38.006Z,98930.44
2022-11-27T10:59:32.831Z,98938.28
2022-11-27T11:02:03.487Z,98943.66
2022-11-27T11:04:38.033Z,98942.84
2022-11-27T11:07:24.412Z,98935.59
2022-11-27T11:09:52.326Z,98922.25
2022-11-27T11:12:21.852Z,98928.75
2022-11-27T11:14:53.044Z,98926.84
2022-11-27T11:17:31.373Z,98921.00
2022-11-27T11:19:58.428Z,98919.63
2022-11-27T11:22:25.456Z,98918.78
2022-11-27T11:24:53.799Z,98914.19
2022-11-27T11:27:27.333Z,98903.94
2022-11-27T11:30:00.108Z,98902.69
2022-11-27T11:32:31.219Z,98905.75
2022-11-27T11:35:03.065Z,98910.16
2022-11-27T11:37:33.639Z,98905.09
2022-11-27T11:40:20.560Z,98900.94
2022-11-27T11:43:01.773Z,98905.31
2022-11-27T11:45:32.820Z,98910.69
2022-11-27T11:48:26.970Z,98899.59
2022-11-27T11:51:08.439Z,98906.81
2022-11-27T11:53:58.449Z,98897.06
2022-11-27T11:56:33.143Z,98895.81
2022-11-27T11:59:00.052Z,98895.81
2022-11-27T12:01:43.706Z,98897.31
2022-11-27T12:04:13.785Z,98893.47
2022-11-27T12:07:11.466Z,98896.69
2022-11-27T12:09:38.237Z,98897.53
2022-11-27T12:12:30.580Z,98896.47
2022-11-27T12:15:22.714Z,98898.47
2022-11-27T12:18:01.249Z,98898.59
2022-11-27T12:20:53.931Z,98887.97
2022-11-27T12:23:35.901Z,98884.19
2022-11-27T12:26:11.876Z,98880.84
2022-11-27T12:29:27.855Z,98889.34
2022-11-27T12:32:08.639Z,98891.94
2022-11-27T12:34:51.736Z,98889.63
2022-11-27T12:37:40.889Z,98891.28
2022-11-27T12:40:35.616Z,98889.41
2022-11-27T12:43:28.336Z,98887.31
2022-11-27T12:46:15.213Z,98887.50
2022-11-27T12:49:13.668Z,98884.47
2022-11-27T12:51:43.271Z,98888.44
2022-11-27T12:54:22.644Z,98877.56
2022-11-27T12:56:57.972Z,98882.06
2022-11-27T12:59:34.872Z,98878.50
2022-11-27T13:02:18.704Z,98884.34
2022-11-27T13:04:56.889Z,98887.16
2022-11-27T13:07:47.894Z,98879.81
2022-11-27T13:10:26.250Z,98876.59
2022-11-27T13:12:56.298Z,98882.22
2022-11-27T13:15:29.557Z,98877.09
2022-11-27T13:18:41.500Z,98881.34
2022-11-27T13:21:15.899Z,98892.81
2022-11-27T13:23:43.145Z,98881.75
2022-11-27T13:26:23.340Z,98891.16
2022-11-27T13:28:58.573Z,98882.03
2022-11-27T13:31:31.881Z,98884.66
2022-11-27T13:34:03.416Z,98880.44
2022-11-27T13:36:39.892Z,98880.75
2022-11-27T13:39:07.529Z,98891.94
2022-11-27T13:41:40.351Z,98882.31
2022-11-27T13:44:25.458Z,98885.78
2022-11-27T13:46:55.639Z,98889.59
2022-11-27T13:49:30.643Z,98886.06
2022-11-27T13:52:17.951Z,98883.66
2022-11-27T13:55:02.045Z,98878.78
2022-11-27T13:57:30.396Z,98883.47
2022-11-27T14:00:04.160Z,98883.09
2022-11-27T14:02:47.203Z,98884.41
2022-11-27T14:05:17.570Z,98889.16
2022-11-27T14:07:48.077Z,98885.69
2022-11-27T14:10:16.313Z,98885.16
2022-11-27T14:12:54.389Z,98887.13
2022-11-27T14:15:24.636Z,98887.31
2022-11-27T14:18:03.757Z,98889.91
2022-11-27T14:20:33.166Z,98884.13
2022-11-27T14:23:11.645Z,98887.06
2022-11-27T14:25:40.857Z,98882.47
2022-11-27T14:28:21.739Z,98883.78
2022-11-27T14:30:51.451Z,98877.84
2022-11-27T14:33:28.366Z,98883.22
2022-11-27T14:35:57.978Z,98881.84
2022-11-27T14:38:27.159Z,98889.66
2022-11-27T14:41:06.803Z,98882.78
2022-11-27T14:43:33.777Z,98884.81
2022-11-27T14:46:01.973Z,98885.47
2022-11-27T14:48:47.642Z,98881.28
2022-11-27T14:51:18.132Z,98883.97
2022-11-27T14:53:52.022Z,98885.81
2022-11-27T14:56:19.312Z,98880.44
2022-11-27T14:58:53.397Z,98887.91
2022-11-27T15:01:27.073Z,98890.69
2022-11-27T15:04:06.122Z,98884.72
2022-11-27T15:06:46.585Z,98881.34
2022-11-27T15:09:31.773Z,98887.78
2022-11-27T15:12:18.261Z,98882.94
2022-11-27T15:14:52.051Z,98882.75
2022-11-27T15:17:26.538Z,98883.59
2022-11-27T15:19:55.674Z,98888.16
2022-11-27T15:22:23.454Z,98885.63
2022-11-27T15:25:01.266Z,98877.72
2022-11-27T15:27:31.630Z,98883.13
2022-11-27T15:30:18.839Z,98886.28
2022-11-27T15:32:51.253Z,98879.50
2022-11-27T15:35:24.534Z,98888.31
2022-11-27T15:37:51.952Z,98892.94
2022-11-27T15:40:36.103Z,98891.19
2022-11-27T15:43:10.597Z,98884.75
2022-11-27T15:45:38.018Z,98882.41
2022-11-27T15:48:05.067Z,98877.94
2022-11-27T15:50:32.280Z,98887.81
2022-11-27T15:53:01.090Z,98880.19
2022-11-27T15:55:28.084Z,98879.69
2022-11-27T15:57:55.066Z,98887.59
2022-11-27T16:00:22.262Z,98881.63
2022-11-27T16:02:49.291Z,98888.69
2022-11-27T16:05:16.368Z,98882.56
2022-11-27T16:07:43.343Z,98875.09
2022-11-27T16:10:11.345Z,98872.66
2022-11-27T16:12:39.189Z,98876.03
2022-11-27T16:15:07.639Z,98874.63
2022-11-27T16:17:35.196Z,98880.66
2022-11-27T16:20:02.206Z,98872.09
2022-11-27T16:22:29.130Z,98868.84
2022-11-27T16:24:56.388Z,98867.81
2022-11-27T16:27:23.426Z,98869.94
2022-11-27T16:29:50.455Z,98872.63
2022-11-27T16:32:17.468Z,98864.97
2022-11-27T16:34:44.390Z,98875.59
2022-11-27T16:37:18.079Z,98874.66
2022-11-27T16:39:45.494Z,98874.66
2022-11-27T16:42:13.045Z,98878.00
2022-11-27T16:44:40.054Z,98881.63
2022-11-27T16:47:07.332Z,98883.50
2022-11-27T16:49:34.641Z,98888.69
2022-11-27T16:52:02.106Z,98890.13
2022-11-27T16:54:29.229Z,98891.09
2022-11-27T16:56:56.649Z,98891.94
2022-11-27T16:59:23.765Z,98893.91
2022-11-27T17:01:50.672Z,98890.44
2022-11-27T17:04:20.042Z,98889.00
2022-11-27T17:06:48.642Z,98883.31
2022-11-27T17:09:16.112Z,98885.75
2022-11-27T17:11:45.655Z,98884.25
2022-11-27T17:14:12.651Z,98879.22
2022-11-27T17:16:41.676Z,98880.91
2022-11-27T17:19:14.236Z,98877.53
2022-11-27T17:21:42.081Z,98881.84
2022-11-27T17:24:16.045Z,98886.25
2022-11-27T17:26:46.157Z,98872.84
2022-11-27T17:29:15.450Z,98873.94
2022-11-27T17:31:42.822Z,98875.69
2022-11-27T17:34:12.761Z,98870.50
2022-11-27T17:36:42.229Z,98869.75
2022-11-27T17:39:12.397Z,98866.38
2022-11-27T17:41:40.766Z,98863.03
2022-11-27T17:44:07.882Z,98862.34
2022-11-27T17:46:36.391Z,98858.91
2022-11-27T17:49:06.097Z,98859.75
2022-11-27T17:51:35.259Z,98859.84
2022-11-27T17:54:03.490Z,98860.00
2022-11-27T17:56:33.300Z,98860.28
2022-11-27T17:59:00.999Z,98851.63
2022-11-27T18:01:30.264Z,98854.38
2022-11-27T18:04:04.131Z,98856.16
2022-11-27T18:06:32.605Z,98851.03
2022-11-27T18:09:00.397Z,98851.53
2022-11-27T18:11:30.092Z,98853.81
2022-11-27T18:13:59.377Z,98853.06
2022-11-27T18:16:34.200Z,98858.16
2022-11-27T18:19:08.284Z,98863.78
2022-11-27T18:21:36.530Z,98857.16
2022-11-27T18:27:09.853Z,98863.50
2022-11-27T18:29:39.751Z,98873.03
2022-11-27T18:32:06.993Z,98867.63
2022-11-27T18:34:34.352Z,98873.03
2022-11-27T18:37:01.754Z,98880.88
2022-11-27T18:39:28.952Z,98869.75
2022-11-27T18:41:55.965Z,98873.34
2022-11-27T18:44:23.038Z,98860.50
2022-11-27T18:46:50.861Z,98875.78
2022-11-27T18:49:18.522Z,98883.75
2022-11-27T18:51:46.476Z,98877.69
2022-11-27T18:54:13.468Z,98879.41
2022-11-27T18:56:40.532Z,98881.31
2022-11-27T18:59:09.066Z,98878.72
2022-11-27T19:01:42.357Z,98870.31
2022-11-27T19:04:11.338Z,98881.91
2022-11-27T19:06:39.629Z,98879.19
2022-11-27T19:09:06.855Z,98882.06
2022-11-27T19:11:35.224Z,98883.72
2022-11-27T19:14:04.077Z,98879.59
2022-11-27T19:16:36.592Z,98880.63
2022-11-27T19:19:05.031Z,98884.13
2022-11-27T19:21:33.789Z,98895.63
2022-11-27T19:24:03.442Z,98885.38
2022-11-27T19:26:32.723Z,98895.75
2022-11-27T19:29:02.733Z,98902.72
2022-11-27T19:31:32.186Z,98904.34
2022-11-27T19:34:02.288Z,98902.31
2022-11-27T19:36:31.429Z,98901.88
2022-11-27T19:39:01.739Z,98890.66
2022-11-27T19:41:30.911Z,98895.00
2022-11-27T19:44:12.885Z,98889.91
2022-11-27T19:46:41.127Z,98885.09
2022-11-27T19:49:13.622Z,98889.91
2022-11-27T19:51:41.221Z,98889.84
2022-11-27T19:54:12.725Z,98892.69
2022-11-27T19:56:42.584Z,98891.25
2022-11-27T19:59:10.857Z,98887.28
2022-11-27T20:01:40.518Z,98887.09
2022-11-27T20:04:11.157Z,98880.56
2022-11-27T20:06:39.128Z,98881.25
2022-11-27T20:09:06.965Z,98885.84
2022-11-27T20:11:35.765Z,98881.84
2022-11-27T20:14:05.632Z,98875.16
2022-11-27T20:16:34.783Z,98868.28
2022-11-27T20:19:05.718Z,98867.66
2022-11-27T20:21:34.898Z,98864.47
2022-11-27T20:24:04.166Z,98861.88
2022-11-27T20:26:31.189Z,98857.66
2022-11-27T20:28:59.540Z,98859.34
2022-11-27T20:31:29.641Z,98852.53
2022-11-27T20:34:00.859Z,98850.25
2022-11-27T20:36:30.238Z,98849.66
2022-11-27T20:39:00.052Z,98864.59
2022-11-27T20:41:28.913Z,98858.56
2022-11-27T20:43:58.942Z,98857.75
2022-11-27T20:46:26.229Z,98862.22
2022-11-27T20:48:54.384Z,98867.41
2022-11-27T20:51:24.282Z,98870.78
2022-11-27T20:53:53.679Z,98856.38
2022-11-27T20:56:21.143Z,98852.69
2022-11-27T20:58:48.395Z,98849.50
2022-11-27T21:01:18.025Z,98850.66
2022-11-27T21:03:46.293Z,98854.22
2022-11-27T21:06:15.050Z,98848.28
2022-11-27T21:08:42.739Z,98850.31
2022-11-27T21:11:25.227Z,98853.88
2022-11-27T21:13:56.114Z,98853.22
2022-11-27T21:16:25.173Z,98860.22
2022-11-27T21:18:53.812Z,98861.22
2022-11-27T21:21:21.466Z,98855.19
2022-11-27T21:23:49.245Z,98862.19
2022-11-27T21:26:18.665Z,98853.56
2022-11-27T21:28:46.555Z,98848.75
2022-11-27T21:31:19.481Z,98851.34
2022-11-27T21:33:52.003Z,98846.28
2022-11-27T21:36:20.494Z,98843.03
2022-11-27T21:38:47.601Z,98855.84
2022-11-27T21:41:17.159Z,98849.97
2022-11-27T21:43:45.669Z,98850.84
2022-11-27T21:46:20.138Z,98848.22
2022-11-27T21:48:49.606Z,98846.50
2022-11-27T21:51:17.511Z,98852.69
2022-11-27T21:53:49.162Z,98841.63
2022-11-27T21:56:18.328Z,98841.78
2022-11-27T21:58:45.900Z,98837.34
2022-11-27T22:01:19.265Z,98841.56
2022-11-27T22:03:51.506Z,98838.97
2022-11-27T22:06:19.239Z,98838.72
2022-11-27T22:08:49.309Z,98835.28
2022-11-27T22:11:19.668Z,98841.09
2022-11-27T22:13:47.083Z,98841.91
2022-11-27T22:16:19.889Z,98828.84
2022-11-27T22:18:48.195Z,98827.94
2022-11-27T22:21:16.388Z,98832.19
2022-11-27T22:23:44.004Z,98833.19
2022-11-27T22:26:16.132Z,98820.91
2022-11-27T22:28:43.642Z,98834.13
2022-11-27T22:31:31.279Z,98828.97
2022-11-27T22:33:58.849Z,98826.34
2022-11-27T22:36:32.058Z,98823.13
2022-11-27T22:39:02.209Z,98822.75
2022-11-27T22:41:32.276Z,98815.25
2022-11-27T22:44:00.426Z,98805.88
2022-11-27T22:46:34.262Z,98800.06
2022-11-27T22:49:05.558Z,98795.94
2022-11-27T22:51:34.543Z,98800.28
2022-11-27T22:54:02.831Z,98797.63
2022-11-27T22:56:30.063Z,98789.91
2022-11-27T22:59:30.051Z,98785.88
2022-11-27T23:01:48.626Z,98778.84
2022-11-27T23:04:16.593Z,98771.22
2022-11-27T23:06:48.202Z,98779.56
2022-11-27T23:09:17.849Z,98781.31
2022-11-27T23:11:45.525Z,98786.41
2022-11-27T23:14:12.448Z,98780.53
2022-11-27T23:16:39.718Z,98784.75
2022-11-27T23:19:07.058Z,98788.78
2022-11-27T23:21:37.628Z,98782.75
2022-11-27T23:24:05.684Z,98783.44
2022-11-27T23:26:33.074Z,98781.69
2022-11-27T23:29:00.075Z,98791.22
2022-11-27T23:31:31.504Z,98781.84
2022-11-27T23:34:01.889Z,98792.63
2022-11-27T23:36:30.040Z,98794.22
2022-11-27T23:38:58.898Z,98792.44
2022-11-27T23:41:25.829Z,98803.63
2022-11-27T23:43:53.906Z,98795.25
2022-11-27T23:46:23.016Z,98786.22
2022-11-27T23:48:50.009Z,98788.72
2022-11-27T23:51:22.261Z,98786.22
2022-11-27T23:53:50.469Z,98783.69
2022-11-27T23:56:26.494Z,98777.06
2022-11-27T23:58:55.501Z,98767.00
